This is the latest recevied weather packets stored in our database for station/object DG1GMY-10. If no packets are shown the sender has not sent any weather packets the latest 10 day(s).
| Time | Temp. | Humidity | Pressure | Rain* | Wind** | Luminosity | Snow |
|---|---|---|---|---|---|---|---|
| 1788136599 | 66° F | 100% | 762.8 mmHg | - | - | - | - |
| 1788132999 | 66° F | 100% | 762.2 mmHg | - | - | - | - |
| 1788129398 | 69° F | 75% | 761.2 mmHg | - | - | - | - |
| 1788125798 | 70° F | 70% | 761.3 mmHg | - | - | - | - |
| 1788122198 | 69° F | 70% | 761.6 mmHg | - | - | - | - |
| 1788118598 | 70° F | 67% | 761.8 mmHg | - | - | - | - |
| 1788114998 | 74° F | 58% | 761.7 mmHg | - | - | - | - |
| 1788111398 | 83° F | 42% | 761.8 mmHg | - | - | - | - |
| 1788107798 | 97° F | 29% | 761.7 mmHg | - | - | - | - |
| 1788104198 | 104° F | 25% | 761.8 mmHg | - | - | - | - |
| 1788100598 | 95° F | 35% | 762.3 mmHg | - | - | - | - |
| 1788096997 | 88° F | 43% | 762.8 mmHg | - | - | - | - |
| 1788093397 | 83° F | 56% | 763.3 mmHg | - | - | - | - |
| 1788089797 | 78° F | 67% | 763.6 mmHg | - | - | - | - |
| 1788086197 | 75° F | 71% | 763.9 mmHg | - | - | - | - |
| 1788082597 | 76° F | 70% | 763.9 mmHg | - | - | - | - |
| 1788078997 | 74° F | 81% | 763.9 mmHg | - | - | - | - |
| 1788075397 | 71° F | 84% | 763.8 mmHg | - | - | - | - |
| 1788071797 | 68° F | 92% | 763.5 mmHg | - | - | - | - |
| 1788068196 | 67° F | 94% | 763.2 mmHg | - | - | - | - |
| 1788064596 | 67° F | 89% | 763 mmHg | - | - | - | - |
| 1788060996 | 66° F | 88% | 763 mmHg | - | - | - | - |
| 1788057396 | 67° F | 89% | 762.9 mmHg | - | - | - | - |
| 1788053796 | 68° F | 89% | 763 mmHg | - | - | - | - |
| 1788050196 | 68° F | 91% | 763 mmHg | - | - | - | - |
* Rain since midnight (hover to see other rain measurements)
** Current wind speed in m/s (hover to see current wind gust speed)